Time;durP1;ratioP1;P1;durP2;ratioP2;P2;SDS_P1;SDS_P2;PMS_P1;PMS_P2;Temp;Humidity;BMP_temperature;BMP_pressure;BME280_temperature;BME280_humidity;BME280_pressure;Samples;Min_cycle;Max_cycle;Signal;HPM_P1;HPM_P2
2022/07/26 00:00:18;;;;;;;2.55;2.45;;;;;;;24.85;47.67;96521.53;5058110;28;20318;-55
2022/07/26 00:02:46;;;;;;;2.80;2.60;;;;;;;24.77;47.94;96516.44;5058330;28;20211;-55
2022/07/26 00:05:13;;;;;;;4.55;2.65;;;;;;;24.82;47.12;96523.88;5057197;28;20238;-56
2022/07/26 00:07:40;;;;;;;2.63;2.42;;;;;;;24.85;46.72;96536.94;5057886;28;20217;-56
2022/07/26 00:10:07;;;;;;;2.60;2.40;;;;;;;24.70;47.64;96534.69;5057192;28;20207;-57
2022/07/26 00:12:34;;;;;;;3.67;2.60;;;;;;;24.72;46.67;96536.09;5056846;28;20733;-55
2022/07/26 00:15:00;;;;;;;4.05;2.20;;;;;;;24.63;47.02;96529.38;5057454;28;20230;-55
2022/07/26 00:17:27;;;;;;;2.47;2.17;;;;;;;24.62;47.18;96532.34;5058611;28;20688;-55
2022/07/26 00:19:55;;;;;;;4.43;2.22;;;;;;;24.64;47.04;96535.63;5057374;28;20265;-57
2022/07/26 00:22:38;;;;;;;3.75;2.35;;;;;;;24.59;46.93;96536.31;5056623;28;20558;-57
2022/07/26 00:25:07;;;;;;;3.10;2.00;;;;;;;24.55;47.31;96543.25;5056033;28;20293;-57
2022/07/26 00:27:36;;;;;;;3.67;2.03;;;;;;;24.45;47.81;96548.41;5051462;28;20266;-56
2022/07/26 00:30:04;;;;;;;4.53;2.20;;;;;;;24.47;48.02;96557.13;5053632;28;20207;-57
2022/07/26 00:32:30;;;;;;;2.70;1.98;;;;;;;24.41;48.10;96544.50;5056577;28;20298;-57
2022/07/26 00:34:58;;;;;;;3.67;2.00;;;;;;;24.37;48.19;96558.75;5056506;28;20211;-58
2022/07/26 00:37:25;;;;;;;2.50;2.30;;;;;;;24.30;48.90;96558.84;5056257;28;20685;-56
2022/07/26 00:39:52;;;;;;;2.33;2.13;;;;;;;24.28;48.69;96569.88;5056619;28;20231;-56
2022/07/26 00:42:18;;;;;;;3.55;1.65;;;;;;;24.31;48.97;96557.78;5055914;28;20227;-57
2022/07/26 00:44:46;;;;;;;4.78;2.20;;;;;;;24.30;48.96;96556.13;5056328;28;20203;-55
2022/07/26 00:47:13;;;;;;;2.17;1.90;;;;;;;24.17;50.12;96557.16;5055940;28;20203;-55
2022/07/26 00:49:40;;;;;;;2.38;1.95;;;;;;;24.18;49.72;96566.06;5056327;28;20268;-55
2022/07/26 00:52:09;;;;;;;1.90;1.80;;;;;;;24.15;50.20;96571.94;5056645;28;20261;-55
2022/07/26 00:54:37;;;;;;;2.42;1.60;;;;;;;24.18;50.14;96575.00;5056257;28;20628;-56
2022/07/26 00:57:04;;;;;;;3.03;2.22;;;;;;;24.08;51.22;96582.81;5056585;28;20225;-55
2022/07/26 00:59:30;;;;;;;2.25;2.05;;;;;;;24.02;52.44;96586.41;5055453;28;20597;-55
2022/07/26 01:01:57;;;;;;;3.58;1.70;;;;;;;23.98;52.39;96573.63;5055686;28;20226;-56
2022/07/26 01:04:24;;;;;;;2.97;2.05;;;;;;;23.95;52.82;96587.59;5056027;28;20299;-55
2022/07/26 01:06:51;;;;;;;1.90;1.80;;;;;;;23.94;52.53;96580.53;5056058;28;20221;-55
2022/07/26 01:09:19;;;;;;;3.58;1.83;;;;;;;23.85;53.10;96574.59;5056013;28;20231;-55
2022/07/26 01:11:46;;;;;;;2.10;1.90;;;;;;;23.84;54.00;96580.25;5055815;28;20300;-55
2022/07/26 01:14:12;;;;;;;2.03;1.88;;;;;;;23.82;53.13;96580.47;5055699;28;20206;-55
2022/07/26 01:16:39;;;;;;;4.25;2.00;;;;;;;23.85;53.79;96580.00;5056304;28;20286;-55
2022/07/26 01:19:06;;;;;;;2.97;1.90;;;;;;;23.82;53.82;96582.34;5056319;28;20211;-56
2022/07/26 01:21:34;;;;;;;3.10;1.67;;;;;;;23.76;53.50;96581.38;5056132;28;20313;-55
2022/07/26 01:24:01;;;;;;;2.17;1.75;;;;;;;23.75;53.46;96583.25;5056009;28;20288;-55
2022/07/26 01:26:27;;;;;;;1.90;1.80;;;;;;;23.69;54.28;96584.16;5055606;28;20214;-54
2022/07/26 01:28:54;;;;;;;2.55;1.75;;;;;;;23.72;53.53;96588.28;5056225;28;20662;-54
2022/07/26 01:31:21;;;;;;;4.38;1.70;;;;;;;23.68;55.33;96584.38;5055743;28;20297;-55
2022/07/26 01:33:48;;;;;;;2.33;1.77;;;;;;;23.70;54.78;96576.91;5055234;28;20667;-55
2022/07/26 01:36:15;;;;;;;3.33;1.52;;;;;;;23.59;55.97;96583.88;5055299;28;20211;-55
2022/07/26 01:38:43;;;;;;;2.33;1.73;;;;;;;23.76;54.18;96582.22;5055207;28;20598;-55
2022/07/26 01:41:11;;;;;;;2.45;1.83;;;;;;;23.77;54.35;96591.13;5065286;28;20226;-55
2022/07/26 01:43:37;;;;;;;2.83;1.77;;;;;;;23.70;54.46;96587.69;5058493;28;20203;-54
2022/07/26 01:46:06;;;;;;;1.98;1.83;;;;;;;23.66;54.83;96586.50;5058250;28;20206;-55
2022/07/26 01:48:32;;;;;;;3.10;1.63;;;;;;;23.62;54.82;96585.28;5055194;28;20249;-55
2022/07/26 01:51:00;;;;;;;2.35;2.05;;;;;;;23.60;54.60;96582.81;5055237;28;20282;-55
2022/07/26 01:53:27;;;;;;;1.92;1.67;;;;;;;23.59;55.60;96580.34;5055409;28;20305;-54
2022/07/26 01:55:54;;;;;;;2.45;1.70;;;;;;;23.47;56.65;96582.97;5055005;28;20231;-55
2022/07/26 01:58:21;;;;;;;2.50;1.67;;;;;;;23.54;56.80;96581.03;5055431;28;20238;-55
2022/07/26 02:00:48;;;;;;;2.45;1.70;;;;;;;23.52;56.78;96580.44;5054936;28;20203;-55
2022/07/26 02:03:15;;;;;;;1.92;1.58;;;;;;;23.49;57.00;96575.44;5054862;28;20646;-54
2022/07/26 02:05:42;;;;;;;1.67;1.45;;;;;;;23.46;57.30;96575.09;5055135;28;20234;-55
2022/07/26 02:08:08;;;;;;;1.65;1.45;;;;;;;23.41;57.50;96575.78;5055287;28;20217;-55
2022/07/26 02:13:21;;;;;;;1.77;1.40;;;;;;;23.29;58.51;96564.03;5054566;28;20627;-55
2022/07/26 02:15:47;;;;;;;3.70;1.40;;;;;;;23.22;59.02;96576.78;5054626;28;20249;-56
2022/07/26 02:18:14;;;;;;;2.60;1.63;;;;;;;23.18;59.32;96578.25;5054653;28;20246;-54
2022/07/26 02:20:40;;;;;;;2.60;1.23;;;;;;;23.18;59.44;96586.34;5054488;28;20578;-55
2022/07/26 02:23:07;;;;;;;2.85;1.83;;;;;;;23.10;60.27;96571.28;5054820;28;20241;-55
2022/07/26 02:25:34;;;;;;;2.22;1.65;;;;;;;23.11;60.74;96585.59;5054711;28;20207;-54
2022/07/26 02:28:01;;;;;;;1.40;1.40;;;;;;;23.07;61.28;96576.31;5054993;28;20565;-55
2022/07/26 02:30:29;;;;;;;2.28;1.77;;;;;;;23.05;61.13;96579.25;5052737;28;20288;-56
2022/07/26 02:32:55;;;;;;;1.60;1.50;;;;;;;23.06;61.21;96580.06;5035042;28;20226;-55
2022/07/26 02:35:22;;;;;;;2.28;1.70;;;;;;;23.03;61.29;96581.31;5051782;28;20587;-55
2022/07/26 02:37:48;;;;;;;0.98;0.98;;;;;;;22.99;62.19;96579.31;5054347;28;20222;-55
2022/07/26 02:40:15;;;;;;;2.08;1.30;;;;;;;23.01;61.94;96577.19;5054424;28;20207;-56
2022/07/26 02:42:42;;;;;;;1.77;1.60;;;;;;;22.96;62.25;96575.16;5054735;28;20227;-55
2022/07/26 02:45:10;;;;;;;2.38;1.27;;;;;;;22.90;62.47;96576.06;5054538;28;20211;-56
2022/07/26 02:47:46;;;;;;;1.40;1.27;;;;;;;23.02;62.90;96578.84;5056682;28;20285;-55
2022/07/26 02:50:13;;;;;;;2.65;1.05;;;;;;;22.93;63.55;96575.59;5059464;28;20221;-56
2022/07/26 02:52:39;;;;;;;1.40;1.30;;;;;;;22.86;64.18;96568.63;5058767;28;20233;-56
2022/07/26 02:55:07;;;;;;;1.52;1.42;;;;;;;22.80;64.40;96575.75;5058967;28;20576;-55
2022/07/26 02:57:34;;;;;;;2.45;1.42;;;;;;;22.81;64.75;96572.81;5058864;28;20509;-56
2022/07/26 03:00:00;;;;;;;1.52;1.42;;;;;;;22.91;63.64;96563.41;5058231;28;20221;-56
2022/07/26 03:02:27;;;;;;;3.92;1.40;;;;;;;22.97;63.66;96570.59;5058411;28;20234;-55
2022/07/26 03:04:55;;;;;;;1.33;1.20;;;;;;;22.93;64.16;96575.59;5058407;28;20234;-55
2022/07/26 03:07:22;;;;;;;1.10;1.10;;;;;;;22.87;64.68;96579.19;5058146;28;20306;-55
2022/07/26 03:09:48;;;;;;;1.48;1.15;;;;;;;22.73;65.86;96574.97;5057826;28;20242;-55
2022/07/26 03:12:15;;;;;;;1.70;1.08;;;;;;;22.74;65.95;96584.72;5058320;28;20234;-55
2022/07/26 03:14:42;;;;;;;1.08;1.08;;;;;;;22.73;66.25;96585.75;5058035;28;20612;-55
2022/07/26 03:17:08;;;;;;;0.82;0.80;;;;;;;22.69;66.73;96588.06;5057843;28;20249;-55
2022/07/26 03:19:35;;;;;;;1.77;0.80;;;;;;;22.52;67.57;96586.94;5058050;28;20268;-55
2022/07/26 03:22:03;;;;;;;1.83;0.98;;;;;;;22.47;68.46;96584.06;5057946;28;20560;-56
2022/07/26 03:24:29;;;;;;;2.13;1.08;;;;;;;22.43;68.71;96585.53;5044762;28;20211;-55
2022/07/26 03:26:56;;;;;;;1.17;0.95;;;;;;;22.36;70.06;96583.91;5057812;28;20207;-56
2022/07/26 03:29:23;;;;;;;0.95;0.90;;;;;;;22.35;68.99;96583.13;5048593;28;20237;-56
2022/07/26 03:31:50;;;;;;;2.47;1.10;;;;;;;22.30;69.43;96586.47;5057677;28;20238;-55
2022/07/26 03:34:17;;;;;;;1.27;0.90;;;;;;;22.28;69.72;96582.34;5058132;28;20214;-55
2022/07/26 03:36:44;;;;;;;2.10;0.95;;;;;;;22.30;69.25;96578.38;5057339;28;20246;-56
2022/07/26 03:39:12;;;;;;;2.45;1.17;;;;;;;22.31;69.58;96581.91;5057633;28;20207;-56
2022/07/26 03:41:38;;;;;;;0.80;0.80;;;;;;;22.24;69.46;96586.50;5044090;28;20266;-56
2022/07/26 03:44:05;;;;;;;2.10;0.93;;;;;;;22.20;69.83;96593.38;5057472;28;20288;-55
2022/07/26 03:46:32;;;;;;;0.80;0.77;;;;;;;22.17;69.96;96593.81;5057369;28;20238;-55
2022/07/26 03:48:59;;;;;;;2.15;0.98;;;;;;;22.11;72.09;96597.34;5048763;28;20307;-55
2022/07/26 03:51:25;;;;;;;0.80;0.80;;;;;;;22.02;73.14;96598.66;5053622;28;20226;-56
2022/07/26 03:53:52;;;;;;;0.93;0.90;;;;;;;22.00;72.22;96596.16;5057518;28;20598;-55
2022/07/26 03:56:30;;;;;;;1.75;0.80;;;;;;;22.02;71.99;96593.25;5055652;28;20213;-55
2022/07/26 03:58:58;;;;;;;1.45;0.85;;;;;;;22.03;71.69;96594.94;5048152;28;20655;-55
2022/07/26 04:01:24;;;;;;;0.90;0.80;;;;;;;21.98;73.55;96592.03;5057309;28;20199;-55
2022/07/26 04:03:51;;;;;;;0.75;0.75;;;;;;;21.99;72.35;96599.91;5046628;28;20535;-54
2022/07/26 04:06:18;;;;;;;1.88;0.98;;;;;;;22.03;71.36;96590.38;5055372;28;20249;-55
2022/07/26 04:08:45;;;;;;;3.55;0.98;;;;;;;21.96;71.24;96583.38;5057265;28;20537;-56
2022/07/26 04:11:11;;;;;;;1.95;0.90;;;;;;;22.13;69.49;96585.34;5056723;28;20207;-55
2022/07/26 04:13:39;;;;;;;0.80;0.80;;;;;;;22.08;68.98;96587.00;5057015;28;20202;-55
2022/07/26 04:16:06;;;;;;;1.75;1.02;;;;;;;22.05;69.04;96582.06;5056798;28;20231;-54
2022/07/26 04:18:34;;;;;;;1.25;1.20;;;;;;;22.08;68.72;96581.63;5048138;28;20250;-55
2022/07/26 04:21:01;;;;;;;2.35;0.93;;;;;;;21.95;69.83;96579.00;5056808;28;20268;-55
2022/07/26 04:23:27;;;;;;;1.42;1.15;;;;;;;21.86;70.56;96573.00;5056879;28;20667;-55
2022/07/26 04:25:54;;;;;;;2.08;0.93;;;;;;;21.94;69.89;96580.03;5056271;28;20243;-56
2022/07/26 04:28:21;;;;;;;1.27;1.17;;;;;;;21.80;70.67;96574.69;5045024;28;20724;-55
2022/07/26 04:30:49;;;;;;;1.58;1.40;;;;;;;21.81;70.42;96573.66;5055291;28;20643;-54
2022/07/26 04:33:16;;;;;;;1.50;0.82;;;;;;;21.75;70.62;96581.78;5056521;28;20210;-54
2022/07/26 04:35:42;;;;;;;0.90;0.90;;;;;;;21.78;70.17;96582.19;5056367;28;20282;-55
2022/07/26 04:38:09;;;;;;;1.25;1.15;;;;;;;21.69;72.09;96590.69;5056662;28;20206;-55
2022/07/26 04:40:36;;;;;;;3.55;1.75;;;;;;;21.74;71.80;96582.81;5043141;28;20234;-55
2022/07/26 04:43:02;;;;;;;1.80;1.13;;;;;;;21.79;71.36;96577.59;5056043;28;20273;-54
2022/07/26 04:45:30;;;;;;;1.50;1.40;;;;;;;21.68;71.91;96581.78;5054929;28;20288;-55
2022/07/26 04:47:58;;;;;;;2.05;1.25;;;;;;;21.64;72.56;96588.66;5055353;28;20239;-55
2022/07/26 04:50:26;;;;;;;0.98;0.98;;;;;;;21.73;72.86;96589.22;5055039;28;20207;-56
2022/07/26 04:52:53;;;;;;;1.30;1.20;;;;;;;21.69;72.06;96582.63;5045085;28;20265;-57
2022/07/26 04:55:20;;;;;;;2.20;1.50;;;;;;;21.64;72.66;96591.34;5043008;28;20716;-58
2022/07/26 04:57:47;;;;;;;1.60;1.25;;;;;;;21.70;72.09;96590.50;5043469;28;20202;-55
2022/07/26 05:00:16;;;;;;;2.08;1.48;;;;;;;21.60;73.11;96587.44;5043151;28;20246;-55
2022/07/26 05:02:43;;;;;;;1.77;1.30;;;;;;;21.51;74.64;96599.47;5043472;28;20263;-55
2022/07/26 05:05:11;;;;;;;1.30;1.20;;;;;;;21.53;74.62;96600.09;5043337;28;20204;-56
2022/07/26 05:07:41;;;;;;;4.32;1.30;;;;;;;21.48;76.49;96599.06;5043637;28;20214;-56
2022/07/26 05:10:09;;;;;;;2.83;1.17;;;;;;;21.47;76.82;96603.59;5041930;28;20625;-55
2022/07/26 05:12:35;;;;;;;1.60;1.50;;;;;;;21.47;77.40;96597.44;5043410;28;20234;-56
2022/07/26 05:15:03;;;;;;;1.38;1.27;;;;;;;21.48;77.46;96597.19;5043021;28;20218;-54
2022/07/26 05:17:29;;;;;;;1.63;1.20;;;;;;;21.47;77.24;96595.53;5043567;28;20218;-55
2022/07/26 05:19:56;;;;;;;1.13;1.02;;;;;;;21.42;76.05;96599.91;5042887;28;20231;-55
2022/07/26 05:22:24;;;;;;;2.05;1.33;;;;;;;21.43;75.54;96604.25;5043007;28;20250;-55
2022/07/26 05:24:50;;;;;;;1.98;1.13;;;;;;;21.34;75.28;96601.78;5042052;28;20719;-55
2022/07/26 05:27:17;;;;;;;1.17;1.17;;;;;;;21.29;76.61;96598.09;5043101;28;20289;-56
2022/07/26 05:29:44;;;;;;;1.58;1.30;;;;;;;21.23;79.92;96606.97;5042921;28;20234;-55
2022/07/26 05:32:11;;;;;;;1.50;1.40;;;;;;;21.21;80.82;96607.22;5043317;28;20587;-55
2022/07/26 05:34:37;;;;;;;1.48;1.10;;;;;;;21.12;83.01;96613.84;5042606;28;20211;-55
2022/07/26 05:37:04;;;;;;;1.35;1.27;;;;;;;21.18;82.75;96620.25;5043043;28;20192;-55
2022/07/26 05:39:32;;;;;;;2.03;1.45;;;;;;;21.25;83.28;96623.75;5042477;28;20199;-57
2022/07/26 05:41:59;;;;;;;2.03;1.80;;;;;;;21.18;83.27;96623.78;5043699;28;20238;-55
2022/07/26 05:44:26;;;;;;;2.33;2.10;;;;;;;20.80;91.15;96620.88;5045286;28;20320;-55
2022/07/26 05:46:52;;;;;;;2.42;2.22;;;;;;;20.63;92.28;96625.00;5056766;28;20203;-56
2022/07/26 05:49:19;;;;;;;2.17;1.70;;;;;;;20.49;90.03;96623.34;5052351;28;20234;-55
2022/07/26 05:51:46;;;;;;;2.17;1.90;;;;;;;20.37;95.85;96632.22;5050999;28;20257;-53
2022/07/26 05:54:13;;;;;;;2.30;1.73;;;;;;;20.34;94.54;96620.84;5044634;28;20211;-54
2022/07/26 05:56:41;;;;;;;3.13;1.95;;;;;;;20.25;97.90;96623.91;5043236;28;20196;-55
2022/07/26 05:59:08;;;;;;;2.45;2.00;;;;;;;20.16;100.00;96622.41;5041977;28;20216;-56
2022/07/26 06:01:35;;;;;;;2.10;2.00;;;;;;;20.18;100.00;96623.06;5042837;28;20543;-54
2022/07/26 06:04:02;;;;;;;2.17;2.00;;;;;;;20.20;100.00;96629.88;5042877;28;20222;-54
2022/07/26 06:06:28;;;;;;;2.10;2.00;;;;;;;20.22;99.37;96622.44;5041593;28;20196;-55
2022/07/26 06:08:55;;;;;;;3.88;3.63;;;;;;;20.24;99.41;96624.91;5042331;28;20264;-54
2022/07/26 06:11:22;;;;;;;3.28;3.08;;;;;;;20.24;99.66;96623.06;5042059;28;20241;-55
2022/07/26 06:13:50;;;;;;;1.95;1.85;;;;;;;20.22;99.93;96629.69;5042581;28;20211;-54
2022/07/26 06:16:17;;;;;;;2.88;2.13;;;;;;;20.18;100.00;96631.09;5041849;28;20207;-55
2022/07/26 06:18:43;;;;;;;2.53;1.90;;;;;;;20.16;100.00;96635.84;5042349;28;20670;-55
2022/07/26 06:21:11;;;;;;;3.03;2.30;;;;;;;20.16;100.00;96633.16;5041651;28;20191;-54
2022/07/26 06:23:38;;;;;;;1.95;1.85;;;;;;;20.15;100.00;96636.88;5042257;28;20219;-55
2022/07/26 06:26:05;;;;;;;2.50;2.30;;;;;;;20.16;100.00;96630.47;5043331;28;20210;-55
2022/07/26 06:28:31;;;;;;;2.58;2.38;;;;;;;20.18;100.00;96636.47;5042560;28;20211;-55
2022/07/26 06:30:59;;;;;;;2.03;1.90;;;;;;;20.21;100.00;96630.69;5041267;28;20207;-55
2022/07/26 06:33:26;;;;;;;2.30;2.20;;;;;;;20.24;100.00;96633.81;5042058;28;20203;-54
2022/07/26 06:35:53;;;;;;;1.98;1.85;;;;;;;20.26;100.00;96633.63;5042053;28;20199;-55
2022/07/26 06:38:19;;;;;;;2.22;2.03;;;;;;;20.28;100.00;96642.31;5041705;28;20632;-55
2022/07/26 06:40:46;;;;;;;2.58;2.25;;;;;;;20.27;100.00;96629.88;5041324;28;21448;-55
2022/07/26 06:43:12;;;;;;;2.55;2.35;;;;;;;20.28;100.00;96631.56;5042350;28;20319;-55
2022/07/26 06:45:39;;;;;;;2.20;2.10;;;;;;;20.25;100.00;96631.94;5041953;28;20207;-56
2022/07/26 06:48:07;;;;;;;2.85;2.38;;;;;;;20.30;100.00;96635.69;5042374;28;20270;-55
2022/07/26 06:50:33;;;;;;;2.60;2.22;;;;;;;20.34;100.00;96630.75;5041641;28;20226;-55
2022/07/26 06:53:00;;;;;;;2.20;2.00;;;;;;;20.39;100.00;96639.03;5041853;28;20206;-56
2022/07/26 06:55:27;;;;;;;2.45;2.25;;;;;;;20.41;100.00;96636.97;5042104;28;20297;-55
2022/07/26 06:57:53;;;;;;;3.05;2.13;;;;;;;20.41;100.00;96638.81;5041964;28;20290;-55
2022/07/26 07:00:20;;;;;;;3.72;2.25;;;;;;;20.42;100.00;96638.63;5041862;28;20246;-56
2022/07/26 07:02:47;;;;;;;2.33;1.90;;;;;;;20.42;100.00;96635.94;5042001;28;20259;-55
2022/07/26 07:05:15;;;;;;;2.35;2.15;;;;;;;20.38;100.00;96637.38;5041956;28;20196;-56
2022/07/26 07:07:42;;;;;;;2.45;2.25;;;;;;;20.40;100.00;96645.25;5042625;28;20204;-54
2022/07/26 07:10:09;;;;;;;2.28;2.08;;;;;;;20.39;100.00;96644.41;5042026;28;20250;-56
2022/07/26 07:12:36;;;;;;;5.32;2.30;;;;;;;20.38;100.00;96641.91;5042098;28;20234;-55
2022/07/26 07:15:03;;;;;;;1.92;1.83;;;;;;;20.47;100.00;96646.91;5041675;28;20526;-56
2022/07/26 07:17:30;;;;;;;2.25;2.10;;;;;;;20.64;100.00;96652.72;5042085;28;20246;-55
2022/07/26 07:19:56;;;;;;;2.35;2.15;;;;;;;20.76;100.00;96646.50;5040796;28;20700;-55
2022/07/26 07:22:24;;;;;;;2.55;2.35;;;;;;;20.80;100.00;96653.13;5041132;28;20230;-54
2022/07/26 07:24:51;;;;;;;1.95;1.85;;;;;;;20.81;100.00;96643.19;5041363;28;20325;-56
2022/07/26 07:27:18;;;;;;;2.38;2.28;;;;;;;20.74;100.00;96643.22;5042718;28;20207;-57
2022/07/26 07:29:44;;;;;;;3.97;3.40;;;;;;;20.69;96.45;96637.59;5041873;28;20231;-54
2022/07/26 07:32:11;;;;;;;4.30;4.03;;;;;;;20.69;100.00;96636.81;5041716;28;20211;-55
2022/07/26 07:34:37;;;;;;;4.03;3.70;;;;;;;20.68;100.00;96633.28;5045137;28;20234;-55
2022/07/26 07:37:04;;;;;;;2.92;2.72;;;;;;;20.74;100.00;96637.81;5045293;28;20204;-56
2022/07/26 07:39:32;;;;;;;3.67;3.38;;;;;;;20.81;99.38;96637.81;5045239;28;20296;-55
2022/07/26 07:41:58;;;;;;;2.92;2.42;;;;;;;20.82;99.80;96640.31;5047145;28;20230;-56
2022/07/26 07:44:25;;;;;;;2.90;2.70;;;;;;;20.94;99.28;96647.75;5046942;28;20230;-55
2022/07/26 07:46:54;;;;;;;2.63;2.40;;;;;;;21.08;99.53;96647.53;5047198;28;20207;-56
2022/07/26 07:49:21;;;;;;;2.28;2.17;;;;;;;21.23;95.16;96642.78;5047671;28;20230;-55
2022/07/26 07:51:47;;;;;;;3.15;2.35;;;;;;;21.33;94.88;96653.09;5046836;28;20231;-56
2022/07/26 07:54:15;;;;;;;4.00;2.58;;;;;;;21.50;94.26;96643.56;5046753;28;20235;-59
2022/07/26 07:56:44;;;;;;;3.45;2.42;;;;;;;21.57;94.30;96644.38;5044719;28;20227;-55
2022/07/26 07:59:11;;;;;;;2.30;2.10;;;;;;;21.57;94.01;96648.94;5048277;28;20196;-55
2022/07/26 08:01:38;;;;;;;3.60;2.50;;;;;;;21.62;93.96;96649.09;5048583;28;20200;-56
2022/07/26 08:04:05;;;;;;;2.63;2.42;;;;;;;21.64;92.07;96645.19;5049285;28;20223;-56
2022/07/26 08:06:32;;;;;;;3.22;2.50;;;;;;;21.69;91.52;96648.03;5051210;28;20223;-55
2022/07/26 08:08:58;;;;;;;2.60;2.22;;;;;;;21.72;91.23;96642.25;5050889;28;20614;-55
2022/07/26 08:11:25;;;;;;;2.90;2.20;;;;;;;21.73;90.89;96648.44;5062840;28;20200;-55
2022/07/26 08:13:53;;;;;;;2.60;2.40;;;;;;;21.77;91.56;96647.00;5069989;28;20198;-56
2022/07/26 08:16:20;;;;;;;2.55;2.35;;;;;;;21.81;90.55;96645.53;5071733;28;20251;-55
2022/07/26 08:18:46;;;;;;;2.65;2.45;;;;;;;21.79;90.55;96637.66;5068826;28;20210;-54
2022/07/26 08:21:13;;;;;;;2.58;2.38;;;;;;;21.81;91.42;96643.66;5070972;28;20184;-55
2022/07/26 08:23:39;;;;;;;2.53;2.30;;;;;;;21.80;90.57;96639.31;5063962;28;20222;-55
2022/07/26 08:26:06;;;;;;;2.85;2.25;;;;;;;21.80;88.89;96639.31;5064601;28;20260;-61
2022/07/26 08:28:33;;;;;;;3.95;2.20;;;;;;;21.80;89.01;96643.88;5066914;28;20196;-55
2022/07/26 08:31:01;;;;;;;2.20;2.10;;;;;;;21.76;91.74;96648.84;5069421;28;20207;-54
2022/07/26 08:33:28;;;;;;;2.10;1.85;;;;;;;21.74;92.83;96653.63;5064426;28;20180;-54
2022/07/26 08:35:55;;;;;;;2.53;2.40;;;;;;;21.77;92.87;96644.28;5062032;28;20196;-55
2022/07/26 08:38:21;;;;;;;2.80;2.30;;;;;;;21.78;91.52;96641.41;5045397;28;20629;-54
2022/07/26 08:40:48;;;;;;;2.30;2.20;;;;;;;21.90;90.44;96644.28;5043543;28;20211;-55
2022/07/26 08:43:14;;;;;;;2.67;2.47;;;;;;;22.01;89.17;96645.47;5044422;28;20247;-54
2022/07/26 08:45:41;;;;;;;2.35;2.25;;;;;;;22.10;88.87;96649.59;5044164;28;20555;-54
2022/07/26 08:48:12;;;;;;;2.13;2.03;;;;;;;22.16;86.66;96643.31;5043957;28;20325;-55
2022/07/26 08:50:40;;;;;;;2.40;2.30;;;;;;;22.21;85.82;96651.59;5043979;28;20187;-56
2022/07/26 08:53:08;;;;;;;2.70;2.50;;;;;;;22.29;85.14;96654.03;5044304;28;20207;-55
2022/07/26 08:55:35;;;;;;;2.40;2.20;;;;;;;22.41;86.96;96652.31;5043706;28;20204;-55
2022/07/26 08:58:02;;;;;;;2.95;2.65;;;;;;;22.49;85.66;96652.06;5043959;28;20200;-55
2022/07/26 09:00:30;;;;;;;2.28;2.08;;;;;;;22.58;82.62;96656.13;5043584;28;20565;-54
2022/07/26 09:02:58;;;;;;;2.40;2.28;;;;;;;22.58;83.31;96647.22;5044015;28;20210;-55
2022/07/26 09:05:28;;;;;;;3.40;3.10;;;;;;;22.59;82.36;96655.09;5042856;28;20708;-53
2022/07/26 09:07:55;;;;;;;2.35;2.25;;;;;;;22.60;82.34;96656.72;5043396;28;20191;-54
2022/07/26 09:10:22;;;;;;;2.22;2.05;;;;;;;22.54;82.21;96657.59;5043174;28;20210;-55
2022/07/26 09:12:53;;;;;;;2.75;2.55;;;;;;;22.48;82.73;96654.94;5043615;28;20283;-55
2022/07/26 09:15:22;;;;;;;2.45;2.25;;;;;;;22.42;82.67;96659.34;5043768;28;20223;-55
2022/07/26 09:17:50;;;;;;;2.47;2.28;;;;;;;22.42;84.12;96655.81;5043821;28;20207;-55
2022/07/26 09:20:19;;;;;;;2.20;2.10;;;;;;;22.38;86.12;96655.44;5043146;28;20445;-55
2022/07/26 09:23:04;;;;;;;3.38;3.08;;;;;;;22.32;83.82;96661.66;5043829;28;20540;-55
2022/07/26 09:25:33;;;;;;;4.00;3.70;;;;;;;22.32;83.75;96659.81;5043069;28;20238;-55
2022/07/26 09:27:59;;;;;;;4.05;3.08;;;;;;;22.31;83.54;96660.03;5043294;28;20239;-55
2022/07/26 09:30:27;;;;;;;3.15;2.88;;;;;;;22.31;84.77;96658.19;5043453;28;20195;-56
2022/07/26 09:32:59;;;;;;;2.50;2.30;;;;;;;22.36;86.50;96660.19;5043900;28;20230;-54
2022/07/26 09:35:27;;;;;;;2.25;2.15;;;;;;;22.38;85.27;96668.09;5043477;28;20191;-55
2022/07/26 09:37:54;;;;;;;2.15;2.05;;;;;;;22.39;83.12;96667.03;5043363;28;20507;-56
2022/07/26 09:40:24;;;;;;;3.22;2.20;;;;;;;22.42;81.30;96661.22;5042899;28;20207;-55
2022/07/26 09:42:56;;;;;;;3.05;2.22;;;;;;;22.43;84.78;96663.69;5042956;28;20226;-55
2022/07/26 09:45:23;;;;;;;2.08;1.92;;;;;;;22.48;84.57;96658.47;5043379;28;20223;-55
2022/07/26 09:47:50;;;;;;;1.92;1.83;;;;;;;22.62;83.62;96665.44;5041708;28;20327;-54
2022/07/26 09:50:18;;;;;;;2.80;2.28;;;;;;;22.75;83.09;96670.75;5043724;28;20208;-54
2022/07/26 09:53:03;;;;;;;2.20;2.10;;;;;;;22.93;81.93;96671.88;5043068;28;20285;-55
2022/07/26 09:55:31;;;;;;;3.10;2.35;;;;;;;23.03;80.31;96674.91;5044051;28;20213;-56
2022/07/26 09:57:58;;;;;;;2.13;2.03;;;;;;;23.08;79.59;96675.06;5057478;28;20291;-54
2022/07/26 10:00:26;;;;;;;2.50;2.30;;;;;;;23.17;79.66;96671.88;5045517;28;20204;-54
2022/07/26 10:02:53;;;;;;;2.75;2.22;;;;;;;23.28;79.71;96679.25;5043469;28;20631;-56
2022/07/26 10:05:20;;;;;;;2.78;2.25;;;;;;;23.32;77.35;96676.94;5042773;28;20285;-55
2022/07/26 10:07:47;;;;;;;2.38;2.17;;;;;;;23.42;77.32;96679.97;5042653;28;20195;-55
2022/07/26 10:10:16;;;;;;;1.80;1.70;;;;;;;23.47;77.04;96685.53;5042914;28;20227;-55
2022/07/26 10:12:45;;;;;;;2.03;1.92;;;;;;;23.58;77.88;96682.09;5042522;28;20211;-55
2022/07/26 10:15:35;;;;;;;2.97;1.83;;;;;;;23.72;76.93;96678.22;5042893;28;20238;-55
2022/07/26 10:18:03;;;;;;;2.88;1.98;;;;;;;23.91;73.25;96681.75;5042290;28;20663;-55
2022/07/26 10:20:54;;;;;;;3.10;2.05;;;;;;;24.14;75.20;96679.19;5042570;28;20219;-54
2022/07/26 10:23:39;;;;;;;2.10;1.90;;;;;;;24.73;74.21;96678.38;5042742;28;20199;-54
2022/07/26 10:26:07;;;;;;;1.80;1.67;;;;;;;25.14;73.26;96676.75;5042878;28;20195;-55
2022/07/26 10:28:36;;;;;;;2.97;2.40;;;;;;;25.18;66.88;96669.81;5042003;28;20695;-55
2022/07/26 10:31:31;;;;;;;2.35;2.17;;;;;;;25.31;64.36;96674.97;5041599;28;20238;-54
2022/07/26 10:33:59;;;;;;;2.30;2.10;;;;;;;25.61;64.20;96664.88;5041979;28;20273;-55
2022/07/26 10:36:28;;;;;;;2.20;2.08;;;;;;;25.93;65.45;96659.06;5041390;28;20580;-56
2022/07/26 10:39:00;;;;;;;3.75;2.20;;;;;;;25.95;61.34;96652.34;5041438;28;20298;-55
2022/07/26 10:41:35;;;;;;;2.50;1.95;;;;;;;26.06;64.62;96664.22;5042033;28;20200;-55
2022/07/26 10:44:20;;;;;;;2.92;2.00;;;;;;;26.38;61.67;96670.03;5042019;28;20305;-56
2022/07/26 10:47:14;;;;;;;2.28;2.10;;;;;;;26.61;59.50;96662.63;5041900;28;20199;-56
2022/07/26 10:49:44;;;;;;;2.03;1.90;;;;;;;26.90;61.21;96654.47;5040957;28;20202;-55
2022/07/26 10:52:16;;;;;;;2.33;2.13;;;;;;;26.82;56.21;96654.88;5043044;28;20211;-55
2022/07/26 10:55:09;;;;;;;2.25;1.90;;;;;;;26.76;55.58;96658.53;5041946;28;20203;-56
2022/07/26 10:57:37;;;;;;;1.90;1.80;;;;;;;26.67;56.90;96650.81;5041680;28;20249;-55
2022/07/26 11:00:10;;;;;;;2.55;2.03;;;;;;;26.91;60.70;96645.28;5041143;28;20247;-55
2022/07/26 11:02:37;;;;;;;1.80;1.60;;;;;;;26.86;59.03;96653.31;5041692;28;20214;-55
2022/07/26 11:05:11;;;;;;;1.73;1.63;;;;;;;26.83;59.75;96651.09;5041294;28;20230;-56
2022/07/26 11:07:52;;;;;;;2.25;2.05;;;;;;;26.77;57.84;96643.91;5042531;28;20261;-56
2022/07/26 11:10:32;;;;;;;2.10;2.00;;;;;;;26.38;60.29;96646.47;5045668;28;20192;-54
2022/07/26 11:13:10;;;;;;;2.35;2.00;;;;;;;26.08;60.34;96643.94;5046485;28;20187;-56
2022/07/26 11:15:40;;;;;;;1.95;1.85;;;;;;;25.92;63.21;96647.41;5045980;28;20230;-54
2022/07/26 11:18:23;;;;;;;2.33;1.85;;;;;;;25.68;60.99;96635.78;5045727;28;20654;-55
2022/07/26 11:20:52;;;;;;;2.42;2.33;;;;;;;25.48;61.06;96640.72;5044632;28;20195;-55
2022/07/26 11:23:27;;;;;;;4.07;2.05;;;;;;;25.19;62.64;96644.38;5045908;28;20582;-55
2022/07/26 11:26:06;;;;;;;2.42;2.20;;;;;;;24.86;65.52;96636.81;5045049;28;20250;-55
2022/07/26 11:28:47;;;;;;;2.38;2.00;;;;;;;24.81;66.94;96638.53;5045471;28;20678;-55
2022/07/26 11:31:15;;;;;;;2.30;2.20;;;;;;;24.65;65.27;96635.47;5045356;28;20290;-54
2022/07/26 11:33:43;;;;;;;4.90;2.25;;;;;;;24.44;65.01;96633.28;5046017;28;20282;-55
2022/07/26 11:36:11;;;;;;;2.83;1.70;;;;;;;24.57;64.17;96637.66;5045250;28;20215;-55
2022/07/26 11:38:45;;;;;;;2.42;2.22;;;;;;;24.54;62.38;96640.81;5045881;28;20765;-54